Time;durP1;ratioP1;P1;durP2;ratioP2;P2;SDS_P1;SDS_P2;PMS_P1;PMS_P2;Temp;Humidity;BMP_temperature;BMP_pressure;BME280_temperature;BME280_humidity;BME280_pressure;Samples;Min_cycle;Max_cycle;Signal;HPM_P1;HPM_P2
2020/12/17 00:00:39;;;;;;;65.55;58.95;;;;;;;13.71;41.51;101004.78;4407303;32;33788;-89
2020/12/17 00:03:06;;;;;;;67.53;60.75;;;;;;;13.95;41.18;101012.97;4381951;32;32315;-89
2020/12/17 00:05:35;;;;;;;66.80;60.33;;;;;;;13.39;42.14;101016.87;4394581;32;32892;-89
2020/12/17 00:08:03;;;;;;;68.28;61.03;;;;;;;13.50;41.81;101007.00;4394436;32;32815;-89
2020/12/17 00:10:31;;;;;;;67.50;60.80;;;;;;;13.23;42.49;101012.81;4394936;32;33811;-89
2020/12/17 00:12:58;;;;;;;68.50;62.08;;;;;;;13.30;42.54;101011.78;4394673;32;33772;-88
2020/12/17 00:15:25;;;;;;;65.43;58.85;;;;;;;13.59;41.96;101002.44;4394472;32;34118;-89
2020/12/17 00:17:53;;;;;;;67.80;61.03;;;;;;;14.01;40.92;100999.69;4382002;32;33950;-88
2020/12/17 00:20:22;;;;;;;68.72;61.58;;;;;;;13.95;40.64;101005.09;4393500;32;32389;-89
2020/12/17 00:22:50;;;;;;;68.72;61.88;;;;;;;14.19;40.10;101004.44;4394589;32;33541;-89
2020/12/17 00:25:23;;;;;;;67.68;61.30;;;;;;;13.15;42.24;101006.00;4394818;32;34016;-89
2020/12/17 00:27:50;;;;;;;68.82;61.97;;;;;;;13.34;41.97;101003.81;4394181;32;32881;-88
2020/12/17 00:30:18;;;;;;;65.95;59.92;;;;;;;13.48;41.41;101008.81;4394143;32;32935;-88
2020/12/17 00:32:47;;;;;;;67.97;61.10;;;;;;;13.97;40.41;101009.41;4393801;32;34178;-88
2020/12/17 00:35:14;;;;;;;67.25;60.58;;;;;;;13.76;40.83;101009.91;4420867;32;34807;-89
2020/12/17 00:37:43;;;;;;;65.75;59.58;;;;;;;13.68;41.07;101002.22;4381742;32;34033;-89
2020/12/17 00:40:12;;;;;;;68.82;61.83;;;;;;;13.50;41.21;101004.38;4406631;32;33618;-89
2020/12/17 00:42:40;;;;;;;67.95;61.35;;;;;;;13.12;42.05;101007.81;4381863;32;32711;-89
2020/12/17 00:45:08;;;;;;;68.22;61.90;;;;;;;13.42;41.67;101003.69;4394186;32;33051;-89
2020/12/17 00:47:35;;;;;;;68.50;61.67;;;;;;;13.64;41.37;101008.44;4394382;32;34530;-89
2020/12/17 00:50:08;;;;;;;69.53;63.08;;;;;;;13.46;41.73;101010.59;4381687;32;32652;-88
2020/12/17 00:52:37;;;;;;;68.07;61.05;;;;;;;13.26;42.19;101013.63;4381683;32;32879;-89
2020/12/17 00:55:05;;;;;;;66.47;60.12;;;;;;;12.57;43.84;101015.03;4393668;32;32997;-89
2020/12/17 00:57:33;;;;;;;68.62;61.97;;;;;;;13.61;41.56;101016.37;4393924;32;33523;-88
2020/12/17 01:00:00;;;;;;;67.82;61.08;;;;;;;13.09;42.83;101013.97;4393909;32;33121;-89
2020/12/17 01:02:28;;;;;;;67.37;60.80;;;;;;;13.51;41.81;101021.81;4393667;32;32755;-89
2020/12/17 01:04:55;;;;;;;69.07;62.38;;;;;;;13.75;41.27;101016.91;4393608;32;33266;-88
2020/12/17 01:07:23;;;;;;;69.30;62.45;;;;;;;13.70;41.32;101037.09;4381577;32;32825;-89
2020/12/17 01:09:50;;;;;;;69.40;62.35;;;;;;;13.58;41.56;101029.53;4394147;32;34160;-89
2020/12/17 01:12:18;;;;;;;68.05;61.35;;;;;;;13.85;40.73;101038.50;4393643;32;32818;-89
2020/12/17 01:14:45;;;;;;;68.37;61.17;;;;;;;13.97;40.69;101029.47;4393711;32;33236;-89
2020/12/17 01:17:14;;;;;;;69.65;62.65;;;;;;;12.49;44.18;101030.84;4406474;32;33635;-89
2020/12/17 01:19:42;;;;;;;70.40;63.33;;;;;;;13.00;42.95;101035.09;4380926;32;32739;-89
2020/12/17 01:22:10;;;;;;;70.03;62.62;;;;;;;13.19;42.50;101025.97;4394024;32;33943;-89
2020/12/17 01:24:37;;;;;;;68.65;62.22;;;;;;;13.79;41.05;101029.03;4381431;32;33288;-88
2020/12/17 01:27:05;;;;;;;67.22;60.63;;;;;;;13.75;41.21;101023.87;4406355;32;33853;-88
2020/12/17 01:29:32;;;;;;;69.28;61.58;;;;;;;12.96;43.07;101026.47;4393573;32;33847;-89
2020/12/17 01:32:00;;;;;;;67.62;60.92;;;;;;;12.91;43.17;101023.06;4394169;32;34403;-88
2020/12/17 01:34:27;;;;;;;68.45;61.25;;;;;;;12.88;43.78;101019.66;4395331;32;32898;-88
2020/12/17 01:36:55;;;;;;;65.68;59.78;;;;;;;12.68;44.53;101023.50;4407889;32;33224;-88
2020/12/17 01:39:23;;;;;;;67.15;60.53;;;;;;;13.64;42.15;101011.94;4395391;32;33174;-89
2020/12/17 01:41:52;;;;;;;68.12;61.47;;;;;;;13.74;41.66;101009.94;4382760;32;33375;-88
2020/12/17 01:44:21;;;;;;;68.70;61.78;;;;;;;13.66;41.77;101019.75;4395972;32;34624;-89
2020/12/17 01:46:49;;;;;;;67.87;61.42;;;;;;;13.68;41.72;101007.47;4395147;32;32470;-88
2020/12/17 01:49:23;;;;;;;68.62;61.47;;;;;;;13.73;41.72;101010.84;4395154;32;32675;-88
2020/12/17 01:51:53;;;;;;;66.95;60.53;;;;;;;12.77;44.02;101012.87;4395799;32;34059;-89
2020/12/17 01:54:21;;;;;;;69.93;63.33;;;;;;;13.29;42.88;101018.78;4382819;32;33618;-88
2020/12/17 01:56:56;;;;;;;67.50;60.63;;;;;;;13.59;42.18;101029.50;4382702;32;33452;-88
2020/12/17 01:59:25;;;;;;;68.40;61.25;;;;;;;13.30;42.95;101023.13;4407675;32;33335;-88
2020/12/17 02:01:53;;;;;;;67.75;61.03;;;;;;;13.66;42.19;101024.97;4394942;32;32903;-89
2020/12/17 02:04:24;;;;;;;66.50;59.92;;;;;;;13.33;42.79;101025.66;4395474;32;33659;-89
2020/12/17 02:06:55;;;;;;;65.78;59.88;;;;;;;13.19;43.17;101019.87;4394951;32;32765;-88
2020/12/17 02:09:23;;;;;;;67.35;61.03;;;;;;;13.41;42.70;101022.91;4382843;32;32976;-89
2020/12/17 02:11:57;;;;;;;66.00;59.53;;;;;;;13.77;41.90;101017.72;4419806;32;32831;-89
2020/12/17 02:14:26;;;;;;;65.53;59.15;;;;;;;13.65;42.09;101018.00;4382838;32;33160;-89
2020/12/17 02:16:54;;;;;;;67.40;60.72;;;;;;;13.79;41.68;101015.94;4395195;32;34168;-89
2020/12/17 02:19:23;;;;;;;67.53;60.88;;;;;;;13.75;41.93;101013.41;4395316;32;33715;-89
2020/12/17 02:21:51;;;;;;;66.32;60.05;;;;;;;13.72;41.89;101009.13;4395348;32;34068;-89
2020/12/17 02:24:24;;;;;;;67.65;61.00;;;;;;;13.59;42.32;101016.41;4394839;32;32963;-89
2020/12/17 02:26:52;;;;;;;65.43;59.25;;;;;;;13.72;41.92;101014.38;4382506;32;33094;-89
2020/12/17 02:29:21;;;;;;;65.53;59.10;;;;;;;13.72;41.92;101029.22;4395319;32;33356;-89
2020/12/17 02:31:48;;;;;;;67.40;60.88;;;;;;;13.55;42.27;101020.00;4382268;32;32747;-89
2020/12/17 02:34:16;;;;;;;64.47;58.58;;;;;;;13.89;41.45;101027.03;4394954;32;33814;-88
2020/12/17 02:36:43;;;;;;;64.45;58.35;;;;;;;13.42;42.48;101026.41;4394968;32;33837;-89
2020/12/17 02:39:11;;;;;;;65.75;59.55;;;;;;;13.32;42.56;101026.56;4395021;32;32395;-89
2020/12/17 02:41:38;;;;;;;66.70;60.17;;;;;;;13.79;41.51;101031.66;4382318;32;32644;-88
2020/12/17 02:44:07;;;;;;;67.30;60.80;;;;;;;13.67;41.68;101021.47;4394615;32;34286;-88
2020/12/17 02:46:35;;;;;;;67.15;60.00;;;;;;;13.67;41.60;101019.69;4395199;32;34292;-89
2020/12/17 02:49:03;;;;;;;68.30;61.53;;;;;;;14.12;40.46;101025.59;4394866;32;32051;-89
2020/12/17 02:51:31;;;;;;;66.65;59.72;;;;;;;13.81;41.14;101026.38;4382438;32;33288;-89
2020/12/17 02:53:58;;;;;;;68.30;61.83;;;;;;;14.02;40.39;101025.84;4394610;32;33079;-89
2020/12/17 02:56:26;;;;;;;66.72;59.88;;;;;;;13.72;41.01;101030.09;4394791;32;33823;-88
2020/12/17 02:58:53;;;;;;;66.95;60.58;;;;;;;13.61;41.17;101024.22;4382136;32;32604;-89
2020/12/17 03:01:20;;;;;;;66.20;59.95;;;;;;;14.24;39.62;101027.94;4394737;32;33688;-88
2020/12/17 03:03:48;;;;;;;66.78;60.40;;;;;;;14.14;40.04;101031.69;4382365;32;34060;-88
2020/12/17 03:06:15;;;;;;;66.80;60.35;;;;;;;13.91;40.53;101035.75;4394711;32;34201;-89
2020/12/17 03:08:43;;;;;;;67.20;60.55;;;;;;;13.49;40.90;101026.22;4407687;32;34141;-88
2020/12/17 03:11:10;;;;;;;66.65;60.17;;;;;;;13.65;40.96;101025.88;4407211;32;34417;-88
2020/12/17 03:13:38;;;;;;;67.18;60.28;;;;;;;12.74;43.34;101010.31;4384443;32;32933;-88
2020/12/17 03:16:05;;;;;;;65.03;59.08;;;;;;;12.35;44.65;101023.22;4401048;32;33934;-89
2020/12/17 03:18:33;;;;;;;65.95;59.85;;;;;;;11.38;47.29;101025.62;4400092;32;32633;-89
2020/12/17 03:21:01;;;;;;;67.75;60.72;;;;;;;12.01;45.64;101016.84;4411986;32;33882;-88
2020/12/17 03:23:28;;;;;;;68.15;61.47;;;;;;;11.59;46.63;101018.34;4385627;32;33089;-89
2020/12/17 03:25:56;;;;;;;65.78;59.55;;;;;;;12.36;44.74;101020.63;4396808;32;32671;-89
2020/12/17 03:28:23;;;;;;;69.03;62.20;;;;;;;12.18;45.25;101019.19;4396762;32;33566;-89
2020/12/17 03:30:51;;;;;;;66.97;60.10;;;;;;;11.51;47.29;101023.69;4394769;32;32842;-88
2020/12/17 03:33:19;;;;;;;66.18;59.65;;;;;;;12.37;45.17;101017.09;4407313;32;34851;-88
2020/12/17 03:35:46;;;;;;;66.28;59.95;;;;;;;12.87;43.87;101021.41;4394506;32;32667;-88
2020/12/17 03:38:13;;;;;;;69.28;62.22;;;;;;;12.99;43.44;101021.16;4407430;32;33956;-88
2020/12/17 03:40:41;;;;;;;66.12;59.38;;;;;;;12.97;43.48;101016.84;4382134;32;32963;-89
2020/12/17 03:43:09;;;;;;;71.03;63.30;;;;;;;12.99;43.42;101015.91;4394447;32;34024;-88
2020/12/17 03:45:36;;;;;;;69.22;62.58;;;;;;;13.32;42.67;101021.34;4381673;32;32311;-89
2020/12/17 03:48:03;;;;;;;66.47;59.92;;;;;;;13.34;42.48;101024.78;4394322;32;32473;-88
2020/12/17 03:50:31;;;;;;;68.50;61.80;;;;;;;13.58;41.71;101022.53;4394143;32;33573;-89
2020/12/17 03:52:58;;;;;;;66.32;60.03;;;;;;;13.55;41.95;101021.72;4407142;32;34590;-89
2020/12/17 03:55:26;;;;;;;67.50;60.47;;;;;;;13.41;42.10;101022.91;4380796;32;33041;-88
2020/12/17 03:57:53;;;;;;;66.97;60.55;;;;;;;13.26;42.47;101016.22;4381767;32;32861;-88
2020/12/17 04:00:21;;;;;;;66.25;59.78;;;;;;;13.52;41.85;101014.81;4407124;32;33785;-89
2020/12/17 04:02:48;;;;;;;69.18;61.97;;;;;;;13.48;42.19;101015.78;4381984;32;33048;-89
2020/12/17 04:05:16;;;;;;;68.40;61.53;;;;;;;13.30;42.74;101015.25;4381771;32;33817;-88
2020/12/17 04:07:44;;;;;;;69.32;62.45;;;;;;;13.28;42.71;101013.56;4394221;32;32802;-89
2020/12/17 04:10:11;;;;;;;65.57;59.35;;;;;;;13.53;42.06;101012.19;4381866;32;32897;-88
2020/12/17 04:12:39;;;;;;;66.82;60.58;;;;;;;13.27;42.29;101011.84;4406784;32;33779;-89
2020/12/17 04:15:06;;;;;;;69.57;62.55;;;;;;;13.63;41.42;101009.34;4394415;32;33902;-88
2020/12/17 04:17:34;;;;;;;68.22;61.58;;;;;;;13.71;41.45;101015.25;4394210;32;32437;-89
2020/12/17 04:20:02;;;;;;;67.95;61.20;;;;;;;13.99;40.89;101015.44;4394280;32;34859;-89
2020/12/17 04:22:29;;;;;;;67.95;61.20;;;;;;;13.84;41.25;101016.69;4406535;32;33832;-89
2020/12/17 04:24:57;;;;;;;66.72;60.00;;;;;;;13.49;41.67;101020.13;4394292;32;32865;-89
2020/12/17 04:27:25;;;;;;;65.68;59.30;;;;;;;13.79;40.77;101015.94;4406892;32;32194;-89
2020/12/17 04:29:52;;;;;;;67.32;60.78;;;;;;;14.08;40.06;101021.34;4394235;32;32966;-89
2020/12/17 04:32:19;;;;;;;66.32;60.10;;;;;;;13.88;40.64;101020.09;4394353;32;33685;-89
2020/12/17 04:34:47;;;;;;;69.10;62.28;;;;;;;13.72;40.94;101017.00;4381588;32;33107;-89
2020/12/17 04:37:16;;;;;;;65.30;58.47;;;;;;;13.42;41.52;101018.56;4384100;32;322641;-89
2020/12/17 04:39:43;;;;;;;67.68;60.35;;;;;;;13.26;42.01;101016.22;4394069;32;32760;-89
2020/12/17 04:42:12;;;;;;;65.70;59.20;;;;;;;13.58;41.39;101014.69;4382204;32;33770;-89
2020/12/17 04:44:42;;;;;;;65.53;59.30;;;;;;;13.35;41.65;101023.03;4381770;32;33330;-89
2020/12/17 04:47:14;;;;;;;66.22;60.00;;;;;;;13.78;40.44;101024.69;4406731;32;33162;-89
2020/12/17 04:49:48;;;;;;;67.50;61.08;;;;;;;13.60;40.75;101028.59;4394080;32;34520;-89
2020/12/17 04:52:21;;;;;;;65.68;59.45;;;;;;;13.69;40.63;101024.91;4381679;32;33178;-89
2020/12/17 04:54:50;;;;;;;64.85;58.78;;;;;;;13.70;40.33;101019.63;4393841;32;33641;-89
2020/12/17 04:57:19;;;;;;;65.87;59.53;;;;;;;13.69;40.13;101019.66;4381735;32;33064;-89
2020/12/17 04:59:48;;;;;;;64.18;58.25;;;;;;;13.74;40.01;101019.56;4381320;32;32851;-89
2020/12/17 05:02:18;;;;;;;65.90;59.17;;;;;;;13.80;39.61;101017.66;4394645;32;34261;-89
2020/12/17 05:04:47;;;;;;;65.97;59.88;;;;;;;13.60;40.13;101028.59;4370850;32;33053;-89
2020/12/17 05:07:17;;;;;;;65.85;59.67;;;;;;;13.30;41.18;101028.34;4396539;32;33383;-89
2020/12/17 05:09:46;;;;;;;64.97;58.87;;;;;;;12.24;43.67;101033.87;4385111;32;32629;-89
2020/12/17 05:12:15;;;;;;;67.62;60.88;;;;;;;13.12;41.72;101029.63;4400943;32;33817;-88
2020/12/17 05:14:43;;;;;;;66.80;60.58;;;;;;;13.62;40.44;101032.03;4400278;32;33625;-89
2020/12/17 05:17:12;;;;;;;65.12;58.50;;;;;;;13.34;40.81;101030.00;4398764;32;32404;-88
2020/12/17 05:19:42;;;;;;;64.65;58.58;;;;;;;13.51;40.32;101026.19;4395273;32;34611;-88
2020/12/17 05:22:13;;;;;;;65.72;59.55;;;;;;;13.11;41.27;101029.63;4393924;32;33271;-89
2020/12/17 05:24:44;;;;;;;64.25;58.35;;;;;;;13.10;41.60;101028.78;4382306;32;33655;-89
2020/12/17 05:27:13;;;;;;;64.97;58.72;;;;;;;13.38;41.07;101030.00;4406974;32;33393;-89
2020/12/17 05:29:42;;;;;;;64.50;58.67;;;;;;;13.69;40.25;101033.63;4406607;32;33895;-89
2020/12/17 05:32:11;;;;;;;62.83;57.00;;;;;;;13.46;40.69;101034.13;4381716;32;33041;-89
2020/12/17 05:34:39;;;;;;;64.03;57.97;;;;;;;13.72;40.20;101039.69;4394058;32;34249;-89
2020/12/17 05:37:07;;;;;;;64.53;58.70;;;;;;;13.47;40.47;101033.25;4381645;32;32509;-89
2020/12/17 05:39:42;;;;;;;65.10;58.95;;;;;;;13.46;40.37;101030.69;4394111;32;33765;-89
2020/12/17 05:42:13;;;;;;;66.60;59.90;;;;;;;13.47;40.52;101045.50;4394586;32;33864;-89
2020/12/17 05:44:41;;;;;;;63.97;57.92;;;;;;;14.00;39.33;101051.25;4381332;32;33020;-88
2020/12/17 05:47:13;;;;;;;66.37;59.90;;;;;;;14.05;39.38;101050.25;4393456;32;33276;-89
2020/12/17 05:49:40;;;;;;;63.78;57.60;;;;;;;14.02;39.45;101052.03;4381223;32;33297;-89
2020/12/17 05:52:21;;;;;;;63.42;57.58;;;;;;;13.96;39.60;101053.94;4393842;32;33266;-89
2020/12/17 05:54:52;;;;;;;65.22;58.92;;;;;;;13.97;39.63;101053.94;4393709;32;33975;-89
2020/12/17 05:57:21;;;;;;;66.07;59.17;;;;;;;13.77;39.90;101045.69;4406253;32;33462;-88
2020/12/17 05:59:59;;;;;;;65.87;59.47;;;;;;;13.93;39.60;101054.88;4393450;32;33830;-89
2020/12/17 06:02:29;;;;;;;65.65;59.42;;;;;;;14.08;39.30;101056.28;4393494;32;34147;-89
2020/12/17 06:05:12;;;;;;;65.93;58.58;;;;;;;13.98;39.57;101057.41;4393611;32;32538;-89
2020/12/17 06:07:40;;;;;;;63.90;57.60;;;;;;;13.34;40.82;101057.94;4393420;32;32684;-89
2020/12/17 06:10:29;;;;;;;63.30;57.58;;;;;;;13.67;40.31;101064.22;4407057;32;35186;-88
2020/12/17 06:13:01;;;;;;;68.37;61.25;;;;;;;13.48;40.61;101055.03;4405746;32;34045;-89
2020/12/17 06:15:32;;;;;;;65.85;59.28;;;;;;;13.37;40.93;101057.91;4381076;32;32711;-89
2020/12/17 06:18:01;;;;;;;64.82;57.95;;;;;;;13.41;41.03;101061.31;4394609;32;33706;-89
2020/12/17 06:20:30;;;;;;;63.50;57.40;;;;;;;13.49;40.66;101069.88;4382900;32;33087;-88
2020/12/17 06:23:00;;;;;;;66.37;58.90;;;;;;;13.62;40.54;101071.31;4395291;32;32706;-89
2020/12/17 06:25:29;;;;;;;65.85;59.70;;;;;;;13.56;40.72;101070.59;4395518;32;33809;-89
2020/12/17 06:27:58;;;;;;;66.50;59.85;;;;;;;13.32;41.35;101063.22;4395439;32;33434;-87
2020/12/17 06:30:27;;;;;;;64.62;59.05;;;;;;;13.77;40.50;101061.41;4382711;32;34043;-89
2020/12/17 06:33:05;;;;;;;64.78;58.80;;;;;;;13.81;40.46;101061.31;4382839;32;32863;-90
2020/12/17 06:35:52;;;;;;;64.03;58.15;;;;;;;13.84;40.47;101076.06;4383582;32;32557;-89
2020/12/17 06:38:22;;;;;;;66.28;60.12;;;;;;;14.01;40.18;101076.53;4408283;32;33007;-90
2020/12/17 06:40:51;;;;;;;65.77;59.57;;;;;;;13.96;40.35;101081.03;4395951;32;33311;-87
2020/12/17 06:43:38;;;;;;;63.85;57.92;;;;;;;13.35;41.83;101091.09;4382975;32;32856;-87
2020/12/17 06:46:38;;;;;;;67.25;60.95;;;;;;;13.83;40.36;101085.69;4395327;32;34456;-88
2020/12/17 06:49:07;;;;;;;67.78;61.17;;;;;;;14.22;39.46;101090.00;4380623;32;32488;-87
2020/12/17 06:51:40;;;;;;;63.17;57.28;;;;;;;12.90;42.52;101094.59;4368271;32;32982;-87
2020/12/17 06:54:17;;;;;;;66.10;59.95;;;;;;;14.02;40.12;101099.22;4392919;32;34045;-87
2020/12/17 06:57:04;;;;;;;66.43;60.10;;;;;;;13.51;41.29;101091.66;4406694;32;33564;-87
2020/12/17 06:59:32;;;;;;;65.22;59.00;;;;;;;12.73;42.73;101089.66;4394690;32;33470;-87
2020/12/17 07:02:00;;;;;;;65.80;59.65;;;;;;;12.82;42.67;101097.34;4396795;32;33364;-87
2020/12/17 07:04:42;;;;;;;68.97;62.20;;;;;;;13.62;40.81;101097.50;4396411;32;34046;-88
2020/12/17 07:07:24;;;;;;;67.70;61.13;;;;;;;13.49;41.41;101104.75;4396278;32;33624;-87
2020/12/17 07:09:53;;;;;;;66.60;59.75;;;;;;;14.17;40.20;101108.50;4392785;32;32492;-88
2020/12/17 07:12:33;;;;;;;64.87;58.87;;;;;;;13.67;41.34;101106.12;4380103;32;32893;-87
2020/12/17 07:15:02;;;;;;;67.78;61.35;;;;;;;13.55;41.24;101113.38;4391801;32;32965;-87
2020/12/17 07:17:30;;;;;;;67.68;61.22;;;;;;;13.24;41.93;101104.37;4380390;32;34086;-86
2020/12/17 07:19:57;;;;;;;68.53;62.15;;;;;;;13.13;42.27;101108.97;4379805;32;32854;-86
2020/12/17 07:22:24;;;;;;;67.95;61.53;;;;;;;14.07;40.21;101101.75;4394897;32;34221;-88
2020/12/17 07:24:55;;;;;;;68.37;61.67;;;;;;;14.51;39.31;101105.00;4394395;32;34017;-85
2020/12/17 07:27:27;;;;;;;69.22;62.17;;;;;;;14.12;40.06;101102.50;4381715;32;33930;-85
2020/12/17 07:29:57;;;;;;;68.07;61.22;;;;;;;13.77;41.07;101106.78;4393992;32;33523;-85
2020/12/17 07:32:44;;;;;;;69.72;63.00;;;;;;;12.82;43.06;101104.34;4391798;32;34012;-88
2020/12/17 07:35:43;;;;;;;73.97;67.07;;;;;;;13.26;42.13;101094.75;4514404;31;276082;-87
2020/12/17 07:38:18;;;;;;;68.53;62.17;;;;;;;13.75;41.07;101102.47;4469979;31;33500;-86
2020/12/17 07:40:46;;;;;;;67.03;60.50;;;;;;;13.46;41.71;101107.44;4482658;31;32355;-85
2020/12/17 07:43:15;;;;;;;66.18;59.95;;;;;;;13.54;41.63;101107.28;4470315;31;33092;-87
2020/12/17 07:45:46;;;;;;;67.82;61.30;;;;;;;13.28;41.98;101103.44;4482537;31;33876;-87
2020/12/17 07:48:46;;;;;;;66.95;60.25;;;;;;;13.47;41.67;101101.31;4482668;31;32353;-87
2020/12/17 07:51:15;;;;;;;65.85;59.65;;;;;;;13.56;41.49;101108.13;4482810;31;33637;-87
2020/12/17 07:53:44;;;;;;;65.90;59.63;;;;;;;13.96;40.39;101102.00;4495691;31;33574;-86
2020/12/17 07:56:11;;;;;;;65.07;58.75;;;;;;;13.70;41.21;101106.03;4483205;31;34535;-87
2020/12/17 07:58:40;;;;;;;65.05;58.60;;;;;;;13.46;41.55;101109.22;4483422;31;33013;-87
2020/12/17 08:01:08;;;;;;;67.47;61.10;;;;;;;13.23;42.07;101104.41;4483007;31;33742;-87
2020/12/17 08:03:52;;;;;;;64.12;58.42;;;;;;;14.01;40.38;101114.97;4483128;31;33534;-87
2020/12/17 08:06:22;;;;;;;68.20;61.97;;;;;;;13.66;41.28;101114.03;4482928;31;33249;-87
2020/12/17 08:08:55;;;;;;;66.25;59.55;;;;;;;13.58;41.49;101116.81;4469964;31;32507;-87
2020/12/17 08:11:33;;;;;;;65.97;59.47;;;;;;;13.56;41.60;101113.38;4484122;31;32583;-87
2020/12/17 08:14:06;;;;;;;65.60;59.53;;;;;;;14.06;40.66;101117.50;4469955;31;33089;-87
2020/12/17 08:16:34;;;;;;;65.90;60.10;;;;;;;13.67;41.49;101119.22;4470192;31;33989;-87
2020/12/17 08:19:03;;;;;;;65.82;59.92;;;;;;;13.97;41.01;101121.19;4469892;31;33174;-87
2020/12/17 08:21:30;;;;;;;64.75;59.05;;;;;;;14.00;41.05;101118.47;4483115;31;34357;-87
2020/12/17 08:23:58;;;;;;;66.72;60.88;;;;;;;14.16;40.67;101122.50;4482892;31;33034;-87
2020/12/17 08:26:28;;;;;;;61.95;56.60;;;;;;;14.41;39.93;101115.78;4482913;31;32817;-87
2020/12/17 08:28:55;;;;;;;61.50;55.78;;;;;;;14.12;40.38;101117.34;4469856;31;33150;-85
2020/12/17 08:31:24;;;;;;;60.38;55.50;;;;;;;14.35;40.02;101122.88;4481423;31;33880;-86
2020/12/17 08:33:53;;;;;;;61.92;56.75;;;;;;;14.41;39.52;101124.50;4464050;31;32936;-85
2020/12/17 08:36:29;;;;;;;63.33;57.90;;;;;;;14.13;40.26;101124.31;4469980;31;32654;-87
2020/12/17 08:38:58;;;;;;;61.80;56.53;;;;;;;14.29;39.87;101124.81;4469889;31;33492;-87
2020/12/17 08:41:29;;;;;;;60.90;55.28;;;;;;;14.09;40.16;101122.66;4480389;32;33202;-87
2020/12/17 08:44:03;;;;;;;61.58;56.10;;;;;;;13.57;41.17;101128.16;4468285;32;33917;-87
2020/12/17 08:46:36;;;;;;;59.97;55.17;;;;;;;13.99;40.24;101122.88;4461192;31;33351;-87
2020/12/17 08:49:08;;;;;;;61.88;56.47;;;;;;;14.45;39.32;101135.78;4488680;31;32306;-87
2020/12/17 08:51:36;;;;;;;61.58;56.60;;;;;;;14.53;38.91;101134.69;4476724;31;32852;-87
2020/12/17 08:54:04;;;;;;;61.92;56.63;;;;;;;14.48;39.06;101127.84;4475452;31;34854;-87
2020/12/17 08:56:32;;;;;;;61.63;56.17;;;;;;;14.07;39.77;101125.31;4461274;31;33462;-88
2020/12/17 08:59:04;;;;;;;64.90;59.17;;;;;;;14.02;39.76;101128.03;4473418;31;32542;-87
2020/12/17 09:01:34;;;;;;;59.38;54.35;;;;;;;13.72;40.51;101123.50;4471284;31;32894;-87
2020/12/17 09:04:06;;;;;;;62.80;57.33;;;;;;;13.96;39.93;101127.31;4472161;31;32968;-87
2020/12/17 09:06:34;;;;;;;59.53;54.40;;;;;;;13.60;40.95;101130.75;4472463;31;33632;-87
2020/12/17 09:09:13;;;;;;;62.03;56.65;;;;;;;13.95;40.26;101136.94;4471980;31;32278;-88
2020/12/17 09:11:46;;;;;;;60.72;55.42;;;;;;;14.14;39.97;101142.63;4458391;31;32738;-87
2020/12/17 09:14:20;;;;;;;62.08;56.92;;;;;;;13.70;41.00;101139.25;4485003;31;34710;-87
2020/12/17 09:16:51;;;;;;;62.92;57.10;;;;;;;13.45;41.66;101139.75;4460007;31;33627;-87
2020/12/17 09:19:19;;;;;;;61.65;56.45;;;;;;;13.82;40.80;101141.59;4459535;31;32545;-87
2020/12/17 09:21:57;;;;;;;62.13;56.33;;;;;;;13.35;41.47;101146.06;4471075;31;33444;-88
2020/12/17 09:24:32;;;;;;;62.92;57.58;;;;;;;13.77;40.88;101132.97;4470741;31;32878;-87
2020/12/17 09:27:21;;;;;;;;;;;;;;;14.15;40.30;101141.72;4472100;31;33560;-87
2020/12/17 09:30:03;;;;;;;60.47;54.80;;;;;;;14.12;40.78;101139.19;4484614;31;33511;-87
2020/12/17 09:32:31;;;;;;;59.90;54.45;;;;;;;13.91;41.40;101137.91;4484563;31;33115;-87
2020/12/17 09:35:06;;;;;;;60.22;55.17;;;;;;;14.14;40.73;101133.91;4464441;31;33577;-88
2020/12/17 09:37:34;;;;;;;59.80;54.90;;;;;;;14.06;40.86;101136.69;4459433;31;32654;-87
2020/12/17 09:40:04;;;;;;;60.00;54.97;;;;;;;14.14;40.33;101142.63;4471926;31;32351;-87
2020/12/17 09:42:32;;;;;;;59.35;54.38;;;;;;;14.16;40.26;101139.94;4458789;31;33673;-88
2020/12/17 09:45:12;;;;;;;60.90;55.50;;;;;;;14.33;39.79;101143.06;4484872;31;34598;-88
2020/12/17 09:47:40;;;;;;;58.58;53.78;;;;;;;14.16;40.13;101137.34;4471975;31;33457;-87
2020/12/17 09:50:17;;;;;;;60.88;55.75;;;;;;;14.42;39.15;101138.47;4459242;31;31753;-87
2020/12/17 09:52:45;;;;;;;61.37;56.08;;;;;;;14.12;39.94;101139.19;4472190;31;33744;-88
2020/12/17 09:55:13;;;;;;;59.92;54.78;;;;;;;14.63;39.23;101139.72;4484645;31;33719;-87
2020/12/17 09:57:41;;;;;;;60.08;55.22;;;;;;;14.18;40.14;101143.41;4470547;31;32641;-87
2020/12/17 10:00:11;;;;;;;60.38;55.35;;;;;;;14.11;40.18;101141.84;4484769;31;32954;-87
2020/12/17 10:02:41;;;;;;;59.38;54.35;;;;;;;14.15;40.17;101141.72;4459515;31;32454;-87
2020/12/17 10:05:11;;;;;;;60.22;55.28;;;;;;;14.50;39.68;101137.38;4457773;31;34124;-87
2020/12/17 10:07:46;;;;;;;58.13;53.50;;;;;;;14.64;39.28;101142.31;4471525;31;33805;-87
2020/12/17 10:10:14;;;;;;;57.40;52.90;;;;;;;14.21;40.24;101138.09;4458680;31;32615;-87
2020/12/17 10:12:42;;;;;;;59.03;54.20;;;;;;;14.48;39.49;101136.56;4459058;31;33666;-87
2020/12/17 10:15:10;;;;;;;57.50;53.13;;;;;;;14.75;39.03;101143.81;4459147;31;33810;-87
2020/12/17 10:17:37;;;;;;;58.60;53.80;;;;;;;14.52;39.22;101137.38;4484376;31;34223;-88
2020/12/17 10:20:06;;;;;;;57.17;52.65;;;;;;;14.61;39.34;101141.50;4471863;31;33544;-87
2020/12/17 10:22:46;;;;;;;56.95;52.47;;;;;;;13.65;41.03;101139.38;4449054;31;34019;-87
2020/12/17 10:25:15;;;;;;;56.83;52.45;;;;;;;13.55;41.67;101148.28;4471915;31;32713;-87
2020/12/17 10:27:42;;;;;;;56.50;52.13;;;;;;;13.86;40.81;101147.62;4470147;31;32569;-87
2020/12/17 10:30:10;;;;;;;56.78;52.47;;;;;;;14.51;39.09;101140.88;4458679;31;32389;-87
2020/12/17 10:32:43;;;;;;;58.65;53.87;;;;;;;13.85;40.80;101141.53;4471624;31;33065;-88
2020/12/17 10:35:11;;;;;;;58.45;53.50;;;;;;;14.36;39.67;101137.72;4486486;31;34746;-87
2020/12/17 10:37:39;;;;;;;58.80;54.13;;;;;;;13.99;40.56;101138.59;4485005;31;34502;-88
2020/12/17 10:40:09;;;;;;;58.28;53.85;;;;;;;14.13;40.23;101134.78;4472625;31;33433;-87
2020/12/17 10:42:41;;;;;;;58.15;53.33;;;;;;;14.34;39.53;101134.28;4472978;31;33712;-87
2020/12/17 10:45:09;;;;;;;58.30;53.67;;;;;;;14.00;40.33;101140.31;4460592;31;33040;-87
2020/12/17 10:47:37;;;;;;;57.67;53.15;;;;;;;13.89;40.63;101144.94;4472223;31;34868;-87
2020/12/17 10:50:06;;;;;;;57.85;53.42;;;;;;;13.84;40.83;101133.69;4471506;31;32646;-87
2020/12/17 10:52:34;;;;;;;61.03;56.03;;;;;;;13.81;40.69;101139.88;4471368;31;32351;-87
2020/12/17 10:55:03;;;;;;;59.47;54.97;;;;;;;14.17;40.13;101141.69;4471341;31;33768;-87
2020/12/17 10:57:30;;;;;;;57.58;53.28;;;;;;;14.17;40.32;101146.91;4470293;31;33550;-87
2020/12/17 10:59:58;;;;;;;58.58;53.92;;;;;;;14.20;39.77;101139.84;4471623;31;33880;-87
2020/12/17 11:02:25;;;;;;;59.55;54.83;;;;;;;13.20;41.91;101142.84;4471472;31;34759;-87
2020/12/17 11:04:53;;;;;;;60.12;55.22;;;;;;;13.56;41.27;101138.69;4458451;31;33364;-87
2020/12/17 11:07:20;;;;;;;59.35;54.80;;;;;;;13.56;41.68;101133.44;4457589;31;32962;-87
2020/12/17 11:09:48;;;;;;;58.35;53.72;;;;;;;13.72;41.21;101142.72;4458098;31;32378;-86
2020/12/17 11:12:15;;;;;;;58.92;54.22;;;;;;;13.48;41.82;101137.09;4471503;31;32754;-87
2020/12/17 11:14:43;;;;;;;57.53;52.80;;;;;;;13.74;41.66;101134.81;4458325;31;32942;-87
2020/12/17 11:17:10;;;;;;;56.67;52.28;;;;;;;13.94;41.24;101131.75;4483378;31;34371;-87
2020/12/17 11:19:38;;;;;;;60.40;55.53;;;;;;;13.47;42.04;101126.66;4484680;31;32981;-87
2020/12/17 11:22:06;;;;;;;60.25;55.22;;;;;;;13.59;42.20;101133.34;4470665;31;33921;-87